AirNav   Everest Fuels
 
 1558 users online  

06AK June Lake Airpark
Wasilla, Alaska, USA

GOING TO WASILLA?


FAA INFORMATION EFFECTIVE 16 JULY 2020

Location

FAA Identifier: 06AK
Lat/Long: 61-37-39.4300N 149-34-31.1900W
61-37.657167N 149-34.519833W
61.6276194,-149.5753306
(estimated)
Elevation: 425 ft. / 130 m (estimated)
From city: 4 miles W of WASILLA, AK
Time zone: UTC -8 (UTC -9 during Standard Time)
Zip code: 99623

Airport Operations

Airport use: Private use. Permission required prior to landing
Activation date: 01/2007
Control tower: no
ARTCC: ANCHORAGE CENTER
FSS: KENAI FLIGHT SERVICE STATION [907-283-7211]
Attendance: IREG
Segmented circle: no

Airport Communications

CTAF: 122.8
WX AWOS-3P at IYS (3 nm S): 135.25 (907-373-3801)
WX AWOS-3P at BCV (13 nm S): 135.55 (907-688-0826)
WX ASOS at PAQ (14 nm E): 134.75 (907-746-6675)

Nearby radio navigation aids

VOR radial/distance  VOR name  Freq  Var
BGQr054/11.7BIG LAKE VORTAC112.5019E
TEDr004/29.7ANCHORAGE VOR/DME113.1518E

 
NDB name  Hdg/Dist  Freq  Var  ID
CAMPBELL LAKE010/30.633816ECMQ -.-. -- --.-

Airport Services

Runway Information

Runway 16/34

Dimensions: 1750 x 40 ft. / 533 x 12 m
Surface: gravel
RUNWAY 16  RUNWAY 34
Traffic pattern: leftleft
Runway heading: 160 true340 true

Airport Ownership and Management from official FAA records

Ownership: Privately-owned
Owner: JUNE LAKE AIRPARK OWNERS ASSN.
4770 W. AIRPARK DR.
WASILLA, AK 99623
Phone 907-357-1949
Manager: HOWARD NUGENT
JUNE LAKE AIRPARK OWNERS ASSN., 4237 EAST MERIDIAN LOOP
WASILLA, AK 99654
Phone 907-376-4711

Airport Operational Statistics

Aircraft based on the field: 3
Single engine airplanes: 3
    
Aircraft operations: 150/year
100% local general aviation

Instrument Procedures

There are no published instrument procedures at 06AK.

Some nearby airports with instrument procedures:

PAWS - Wasilla Airport (3 nm S)
PAGQ - Big Lake Airport (9 nm SW)
PAAQ - Warren "Bud" Woods Palmer Municipal Airport (14 nm E)
PAUO - Willow Airport (16 nm NW)
PAFR - Bryant Army Airfield Heliport (22 nm S)
 
Loc | Ops | Rwys | IFR | FBO | Links
Com | Nav | Svcs | Stats | Notes

Crowley
 
Area around 06AK (June Lake Airpark)
 
Road maps at: MapQuest Bing Google
 
Aerial photo
No photo
 
Sectional chart

 
Airport distance calculator
Flying to June Lake Airpark? Find the distance to fly.

From to 06AK

Sunrise and sunset
Times for 03-Aug-2020
 Local
(UTC-8)
 Zulu
(UTC)
Morning civil twilight04:3212:32
Sunrise05:3713:37
Sunset22:3206:32
Evening civil twilight23:3607:36

Current date and time
Zulu (UTC)  03-Aug-2020 19:13:46
Local (UTC-8)  03-Aug-2020 11:13:46
 
METAR
PABV 
13nm S 
031856Z AUTO VRB03KT 10SM BKN120 14/11 A2977 RMK AO2 SLP085 T01440111
PAAQ 
14nm E 
031853Z 12012G16KT 10SM SCT080 BKN100 17/07 A2975 RMK AO2 SLP075 T01720072 $
PAFR 
22nm S 
031858Z AUTO 21004KT 10SM BKN011 OVC070 16/13 A2973 RMK AO2 SLP073 T01550126 $
PAED 
24nm S 
031856Z 00000KT 10SM FEW010 FEW070 BKN100 15/12 A2976 RMK AO2A SLP073 T01510117 $
PAWS 
25nm NE 
031856Z AUTO 06006KT 10SM FEW110 17/09 A2977 RMK AO2 SLP084 T01720089
TAF
PAAQ 
14nm E 
031744Z 0318/0418 10010KT P6SM VCSH SCT050 BKN100 FM032100 15010G20KT P6SM VCSH BKN060 FM040800 VRB05KT P6SM OVC040
NOTAMs
Click for the latest NOTAMs
NOTAMs are issued by the DoD/FAA and will open in a separate window not controlled by AirNav.

 

 
 

Would you like to see your business listed on this page?

 If your business provides an interesting product or service to pilots, flight crews, aircraft, or users of the June Lake Airpark, you should consider listing it here.  To start the listing process, click on the button below
 
Add a business
 

Other Pages about June Lake Airpark

Update a link
 
Copyright © AirNav, LLC. All rights reserved. Privacy Policy  Contact